AREA preflight bulletin
Updated "live" 24 Sep 2018, 17:27

back to the map




METAR og TAF


NUUK
  AKTUEL BGGH 241650Z 20006KT 9999 SCT090 BKN110 07/M00 Q0995=
  TAF 9 timer BGGH 241716Z 2418/2422 VRB05KT 9999 SCT100=

KANGERLUSSUAQ
  AKTUEL BGSF 241720Z AUTO 25008KT 9999NDV NCD 07/M09 Q0995=
  TAF 24 timer BGSF 241707Z 2418/2524 26008KT 9999 SCT060 BECMG 2421/2423 6000 -SNRA BKN030 TEMPO 2423/2516 2000 SN VV008 TEMPO 2516/2524 9999 NSW BKN050=

KULUSUK
  AKTUEL BGKK 241650Z 04003KT 9999 FEW012 SCT040 02/M02 Q0997 RMK 1SC 4SC =
  TAF 9 timer BGKK 241716Z 2418/2422 VRB03KT 9999 SCT040 TEMPO 2418/2422 BKN020=

NERLERIT INAAT
  AKTUEL BGCO 241650Z AUTO 36004KT //// NCD M00/M09 Q0999=
  TAF 9 timer BGCO 241200Z 2412/2416 02005KT 9999 FEW200=

KEFLAVIK
  AKTUEL BIKF 241700Z 23032G42KT 9999 VCSH FEW018CB BKN028TCU 07/01 Q1005=
  TAF 24 timer BIKF 241627Z 2418/2518 22030G40KT 9999 -SHRA FEW012CB BKN020 TX07/2418Z TN04/2506Z TEMPO 2418/2424 4000 SHRA BKN010CB BECMG 2500/2503 16015KT 5000 RADZ OVC010 BECMG 2503/2506 08020G30KT 1500 RADZ BR OVC005 BECMG 2506/2509 30015KT BECMG 2509/2512 24015G25KT 9000 -RA BKN015=

REYKJAVIK
  AKTUEL BIRK 241700Z 24023KT 9999 VCSH FEW021CB SCT025 BKN030 06/02 Q1006=
  TAF 24 timer BIRK 241627Z 2418/2518 22025G40KT 9999 -SHRA FEW015CB BKN020 TX07/2418Z TN04/2506Z TEMPO 2418/2424 4000 SHRA BKN010CB BECMG 2500/2503 16012KT 5000 RADZ OVC012 BECMG 2503/2506 08018KT 1500 RADZ BR OVC005 BECMG 2509/2512 26013KT 9000 -RA BKN015=

AKUREYRI
  AKTUEL BIAR 241700Z 20016G28KT 170V240 9999 -RA BKN039 08/00 Q1002=
  TAF 24 timer BIAR 241627Z 2418/2518 21017G30KT 9999 SCT030 BKN045 TX07/2418Z TN04/2506Z TEMPO 2418/2503 SHRA BKN015 BECMG 2503/2506 18012KT BECMG 2509/2512 08015KT 5000 SNRA OVC012 BECMG 2512/2515 9999 -SHRASN BKN020=


SIGMETS:

Ingen SIGMET fundet:

SNOWTAM:

ICAO
BGKK (KULUSUK)

valid from:
1809240830

Notam_id:
0157

SNOWTAM 0157 A)BGKK B)09240830 C)11 F)5/5/5 G)20/20/20 H)3/3/3 N)5/GOOD R)5/GOOD T)RWY 11 CONTAMINATION 100 PERCENT 20MM WET SNOW



NOTAM/SNOWTAM for operationel use has to be confirmed with the
nearest AIS Briefing Office prior to a flight.

ICAO
BGGH (NUUK)

FIR
BGGL

Notam_id:
BGB0511/18

valid from:
1806281450

E) BGGH AFIS FREQ 119.100 MHZ NO COVERAGE IN SECTOR BETWEEN 060 DEG MAG AND 210 DEG MAG BELOW FL100.

valid to:
1809301900EST


Replacing:
BGB0266/18

ICAO
BGGH (NUUK)

FIR
BGGL

Notam_id:
BGB0930/17

valid from:
1712181907

E) ERROR IN CHART FOR RNAV (GNSS) APPROACH RWY 23. WITH REF AIP GREENLAND AD 2-BGGH RNAV (GNSS) RWY 23-1. NEW OCA(H) LNAV/VNAV CLIMB 2.5 PERCENT CAT A TO READ 1310 (1029) INSTEAD OF 1230. NEW OCA(H) LNAV/VNAV CLIMB 2.5 PERCENT CAT B TO READ 1340 (1059) INSTEAD OF 1250. NEW OCA(H) LNAV/VNAV CLIMB 5.0 PERCENT CAT A TO READ 1300 (1019) INSTEAD OF 1070. NEW OCA(H) LNAV/VNAV CLIMB 5.0 PERCENT CAT B TO READ 1320 (1039) INSTEAD OF 1110. NEW OCA(H) LNAV CLIMB 5.0 PERCENT CAT A TO READ 1150 (869) IN-STEAD OF 1130. NEW OCA(H) LNAV CLIMB 5.0 PERCENT CAT B TO READ 1240 (959) INSTEAD OF 1230.

valid to:
PERM




ICAO
BGGH (NUUK)

FIR
BGGL

Notam_id:
BGB0715/18

valid from:
1808301353

E) CRANE RAISED AT PSN 641124N0514021W (AIR GREENLAND HANGAR AREA). TOP 82FT AGL.

valid to:
1809301900


Replacing:
BGB0639/18

ICAO
BGGH (NUUK)

FIR
BGGL

Notam_id:
BGA0451/18

valid from:
1809211000

E) REDUCED SNOW REMOVAL CAPACITY. ONLY ONE SWEEPER OUT OF TWO IS OPERATIONAL.

valid to:
1812151500EST




ICAO
BGSF (KANGERLUSSUAQ)

FIR
BGGL

Notam_id:
BGA0431/18

valid from:
1809101703

E) PAPI LIGHTS ARE SET ON 10 PERCENT INTENSITY. 20 MINUTES PRIOR NOTICE REQUIRED TO CHANGE SETTING.

valid to:
1809301800EST


Replacing:
BGA0213/18

ICAO
BGSF (KANGERLUSSUAQ)

FIR
BGGL

Notam_id:
BGA0432/18

valid from:
1809101705

E) APCH LIGHTS ARE SET ON 10 PERCENT INTENSITY. 20 MINUTES PRIOR NOTICE REQUIRED TO CHANGE SETTING.

valid to:
1809301800EST


Replacing:
BGA0214/18

ICAO
BGSF (KANGERLUSSUAQ)

FIR
BGGL

Notam_id:
BGA0433/18

valid from:
1809101705

E) RWY EDGE LIGHTS ARE SET ON 10 PERCENT INTENSITY. 20 MINUTES PRIOR NOTICE REQUIRED TO CHANGE SETTING.

valid to:
1809301800EST


Replacing:
BGA0215/18

ICAO
BGSF (KANGERLUSSUAQ)

FIR
BGGL

Notam_id:
BGA0445/18

valid from:
1809131554

E) BGSF FBO E-MAIL ADDRESS: BGSF(AT)MIT.GL REF AIP GRL/AD 2 - BGSF, GEN 3.3 - 2 AND GEN 3.4 - 3.

valid to:
PERM




ICAO
BGSF (KANGERLUSSUAQ)

FIR
BGGL

Notam_id:
BGA0420/18

valid from:
1809071508

E) RWY MAINT IS BEING CONDUCTED. LANDINGS: MAINT WILL HAVE NO EFFECT. DEPARTURES: AIRCRAFT MAY EXPECT 09-B OR 27-C FOR DEPARTURE, ADVICE ATC PRIOR TO START UP IF FULL RWY LENGTH OR RWY 27 IS REQUIRED. FOR MORE INFORMATION: CONTACT ARO TEL. 00299 382905

valid to:
1809261900EST


Replacing:
BGA0419/18

ICAO
BGKK (KULUSUK)

FIR
BGGL

Notam_id:
BGB0760/18

valid from:
1809171042

E) OBSTACLE LIGHT WINDSOCK THR 11 OUT OF SERVICE

valid to:
1810082000EST


Replacing:
BGB0730/18

ICAO
BGKK (KULUSUK)

FIR
BGGL

Notam_id:
BGB0740/17

valid from:
1709221803

E) PAPI RWY 11 ANGLE CHANGED TO 3.40 DEG.

valid to:
PERM




ICAO
BGKK (KULUSUK)

FIR
BGGL

Notam_id:
BGB0759/18

valid from:
1809171041

E) WINDSOCK LIGHT THR 11 OUT OF SERVICE.

valid to:
1810082000EST


Replacing:
BGB0722/18

ICAO
BGCO (NERLERIT INAAT)

FIR
BGGL

Notam_id:
BGB0659/18

valid from:
1808101101

E) SEA RESCUE NOT AVAILABLE.

valid to:
1810151500


Replacing:
BGB0522/18

ICAO
BGGL (SONDRESTROM FIR)

FIR
BGGL

Notam_id:
BGA0299/18

valid from:
1809130000

E) AIP AIRAC AMDT EFFECTIVE DATE 13 SEP 2018: NIL.

valid to:
1809262359




ICAO
BGGL (SONDRESTROM FIR)

FIR
BGGL

Notam_id:
BGA0405/18

valid from:
1809010501

E) CHECKLIST YEAR=2017 0269 YEAR=2018 0199 0213 0214 0215 0299 0365 0366 0383 0389 0393 0394 0401 0402 0403 LATEST PUBLICATIONS AIP AIRAC AMDT IFR 009/2018 EFFECTIVE DATE 11 OCT 18 AIP AMDT IFR 003/2018 EFFECTIVE DATE 15 MAR 18 AIP SUP IFR 006/2018 EFFECTIVE DATE 18 JUN 18 AIC IFR A003/2018 EFFECTIVE DATE 29 AUG 18

valid to:
1810010501EST


Replacing:
BGA0327/18

ICAO
BGGL (SONDRESTROM FIR)

FIR
BGGL

Notam_id:
BGB0731/18

valid from:
1809010502

E) CHECKLIST YEAR=2017 0740 0930 YEAR=2018 0384 0511 0523 0605 0618 0622 0631 0659 0679 0688 0696 0697 0698 0699 0704 0715 0716 0717 0721 0722 0726 0727 0728 0730 LATEST PUBLICATIONS AIP AIRAC AMDT IFR 009/2018 EFFECTIVE DATE 11 OCT 18 AIP AMDT IFR 003/2018 EFFECTIVE DATE 15 MAR 18 AIP SUP IFR 006/2018 EFFECTIVE DATE 18 JUN 18 AIC IFR A003/2018 EFFECTIVE DATE 29 AUG 18

valid to:
1810010502EST


Replacing:
BGB0641/18

ICAO
BGGL (SONDRESTROM FIR)

FIR
BGGL

Notam_id:
BGC0062/18

valid from:
1809010502

E) CHECKLIST YEAR=2018 0058 0059 0060 LATEST PUBLICATIONS AIP AIRAC AMDT IFR 009/2018 EFFECTIVE DATE 11 OCT 18 AIP AMDT IFR 003/2018 EFFECTIVE DATE 15 MAR 18 AIP SUP IFR 006/2018 EFFECTIVE DATE 18 JUN 18 AIC IFR A003/2018 EFFECTIVE DATE 29 AUG 18

valid to:
1810010502EST


Replacing:
BGC0056/18

ICAO
BGGL (SONDRESTROM FIR)

FIR
BGGL

Notam_id:
BGB0704/18

valid from:
1808241401

E) OBST LIGHTS ON MAST 213 ON THE SOUTHERN PART OF TUNULLIARFIK OUT OF SERVICE

valid to:
1810011800




ICAO
BGGL (SONDRESTROM FIR)

FIR
BGGL

Notam_id:
BGA0199/18

valid from:
1805310935

E) GREENLAND AND ADJACENT WATERS ARE CONSIDERED HOSTILE AREAS BY THE CIVIL AVIATION AUTHORITY (TBST). THREE MAJOR REASONS CONTRIBUTE TO DEFINING THE AREA AS HOSTILE: A SAFE FORCED LANDING CANNOT BE ACCOMPLISHED BECAUSE THE SURFACE IS INADEQUATE. THE HELICOPTER OCCUPANTS CANNOT BE ADEQUATELY PROTECTED FROM THE ELEMENTS. SEARCH AND RESCUE RESPONSE/CAPABILITY ARE NOT PROVIDED CONSISTENT WITH ANTICIPATED EXPOSURE.

valid to:
PERM




ICAO
BIKF (KEFLAVIK)

FIR
BIRD

Notam_id:
BIA0277/18

valid from:
1808300830

E) A-VDGS IS CURRENTLY NOT AVAILABLE. MARSHALLING IS REQUIRED FOR ALL STANDS. REF: AIP ICELAND BIKF AD 2.9.1

valid to:
1809302359


Replacing:
BIA0141/18

ICAO
BIKF (KEFLAVIK)

FIR
BIRD

Notam_id:
BIA0175/18

valid from:
1807091526

E) NEW TWY TO HIGH POWER RUNUP AREA HAS NOT BEEN TAKEN INTO SERVICE REF: AIP ICELAND BIKF AD 2.24.1.2-1

valid to:
1810102359


Replacing:
BIA0092/18

ICAO
BIKF (KEFLAVIK)

FIR
BIRD

Notam_id:
BIA0291/18

valid from:
1809051250

D) DAILY: 1800-0400


E) REF: AIP ICELAND BIKF AD 2.24.1.2-1. DUE TO CONSTRUCTION WORK, STANDS 2, 4, 6, 8 ARE CLOSED AND TAXI LANE N14 WEST OF STAND 78

valid to:
1809280400


Replacing:
BIA0262/18

ICAO
BIKF (KEFLAVIK)

FIR
BIRD

Notam_id:
BIA0346/18

valid from:
1809220000

E) AIRCRAFT STANDS 101 THROUGH 111 ARE IN SERVICE AS PER SUP 008/17 REF: SUP 008/17, BIKF AD 2.24.2.1-1

valid to:
1901032359




ICAO
BIKF (KEFLAVIK)

FIR
BIRD

Notam_id:
BIA0224/18

valid from:
1808101037

E) DUE TO GROOVING OPERATIONS OF RUNWAYS TEST FLIGHTS ARE NOT AUTHORIZED

valid to:
1809242359


Replacing:
BIA0176/18

ICAO
BIKF (KEFLAVIK)

FIR
BIRD

Notam_id:
BIA0241/18

valid from:
1808220930

E) BIR3 LIMITATIONS: WHEN RWY 28 AT BIKF AND/OR RWY 01 AT BIRK IS ACTIVE, TRAINING AREA IS CLOSED. REF ENR 5.1 F) SFC G) 3000 FT

valid to:
1811220930


Replacing:
BIA0127/18

ICAO
BIKF (KEFLAVIK)

FIR
BIRD

Notam_id:
BIA0323/18

valid from:
1809120940

E) SUP 005/18 IS NOT ACTIVE REF: BIKF AD 2.24.2.1-1

valid to:
1811122359


Replacing:
BIA0186/18

ICAO
BIAR (AKUREYRI)

FIR
BIRD

Notam_id:
BIA0263/18

valid from:
1808241400

E) REF: AIP ICELAND BIAR AD 2.24.7.1-3. AKUREYRI SID RWY-19 BOTN 1A. INITIAL MINIMUM CLIMB GRAD. INCREASED TO 5.7 PERCENT UNTIL 4.4 DME IEY. CROSS 2.5 DME ABOVE 820 FT.

valid to:
1811241400





Copyright Naviair   2003-2016